createdAt,value
2022-09-24T00:02:02.000Z,280.1
2022-09-24T00:03:28.000Z,280.09
2022-09-24T00:05:34.000Z,280.07
2022-09-24T00:07:01.000Z,280.05
2022-09-24T00:09:07.000Z,280.05
2022-09-24T00:10:34.000Z,280
2022-09-24T00:12:40.000Z,279.98
2022-09-24T00:14:06.000Z,279.95
2022-09-24T00:16:12.000Z,279.92
2022-09-24T00:17:39.000Z,279.91
2022-09-24T00:19:45.000Z,279.89
2022-09-24T00:21:12.000Z,279.89
2022-09-24T00:23:18.000Z,279.89
2022-09-24T00:26:09.000Z,279.89
2022-09-24T00:27:36.000Z,279.89
2022-09-24T00:29:42.000Z,279.88
2022-09-24T00:31:08.000Z,279.85
2022-09-24T00:33:14.000Z,279.84
2022-09-24T00:34:41.000Z,279.81
2022-09-24T00:36:47.000Z,279.81
2022-09-24T00:38:14.000Z,279.77
2022-09-24T00:40:20.000Z,279.77
2022-09-24T00:41:47.000Z,279.77
2022-09-24T00:43:53.000Z,279.77
2022-09-24T00:45:19.000Z,279.77
2022-09-24T00:47:25.000Z,279.77
2022-09-24T00:48:52.000Z,279.76
2022-09-24T00:50:58.000Z,279.76
2022-09-24T00:52:25.000Z,279.76
2022-09-24T00:54:31.000Z,279.74
2022-09-24T00:55:57.000Z,279.76
2022-09-24T00:58:03.000Z,279.76
2022-09-24T00:59:30.000Z,279.76
2022-09-24T01:01:36.000Z,279.76
2022-09-24T01:04:27.000Z,279.77
2022-09-24T01:05:54.000Z,279.77
2022-09-24T01:08:00.000Z,279.76
2022-09-24T01:09:26.000Z,279.76
2022-09-24T01:11:32.000Z,279.77
2022-09-24T01:12:59.000Z,279.77
2022-09-24T01:15:05.000Z,279.77
2022-09-24T01:16:32.000Z,279.76
2022-09-24T01:18:38.000Z,279.76
2022-09-24T01:20:04.000Z,279.77
2022-09-24T01:22:10.000Z,279.77
2022-09-24T01:23:37.000Z,279.76
2022-09-24T01:25:43.000Z,279.77
2022-09-24T01:27:09.000Z,279.76
2022-09-24T01:29:16.000Z,279.74
2022-09-24T01:30:42.000Z,279.76
2022-09-24T01:32:48.000Z,279.76
2022-09-24T01:34:15.000Z,279.77
2022-09-24T01:36:21.000Z,279.77
2022-09-24T01:37:47.000Z,279.76
2022-09-24T01:39:53.000Z,279.76
2022-09-24T01:42:44.000Z,279.76
2022-09-24T01:44:11.000Z,279.77
2022-09-24T01:46:17.000Z,279.8
2022-09-24T01:47:44.000Z,279.8
2022-09-24T01:49:50.000Z,279.8
2022-09-24T01:51:16.000Z,279.81
2022-09-24T01:53:22.000Z,279.8
2022-09-24T01:54:49.000Z,279.77
2022-09-24T01:56:55.000Z,279.77
2022-09-24T01:58:22.000Z,279.77
2022-09-24T02:00:28.000Z,279.8
2022-09-24T02:01:54.000Z,279.77
2022-09-24T02:04:01.000Z,279.76
2022-09-24T02:05:27.000Z,279.76
2022-09-24T02:07:33.000Z,279.77
2022-09-24T02:09:00.000Z,279.77
2022-09-24T02:11:06.000Z,279.77
2022-09-24T02:12:32.000Z,279.74
2022-09-24T02:14:39.000Z,279.73
2022-09-24T02:16:05.000Z,279.73
2022-09-24T02:18:11.000Z,279.7
2022-09-24T02:21:03.000Z,279.69
2022-09-24T02:22:29.000Z,279.66
2022-09-24T02:24:35.000Z,279.65
2022-09-24T02:26:02.000Z,279.63
2022-09-24T02:28:08.000Z,279.63
2022-09-24T02:29:34.000Z,279.63
2022-09-24T02:31:40.000Z,279.63
2022-09-24T02:33:07.000Z,279.63
2022-09-24T02:35:13.000Z,279.6
2022-09-24T02:36:40.000Z,279.59
2022-09-24T02:38:46.000Z,279.59
2022-09-24T02:40:12.000Z,279.58
2022-09-24T02:42:19.000Z,279.56
2022-09-24T02:43:45.000Z,279.56
2022-09-24T02:45:51.000Z,279.56
2022-09-24T02:47:18.000Z,279.56
2022-09-24T02:49:24.000Z,279.58
2022-09-24T02:50:50.000Z,279.58
2022-09-24T02:52:56.000Z,279.56
2022-09-24T02:54:23.000Z,279.59
2022-09-24T02:56:29.000Z,279.58
2022-09-24T02:59:20.000Z,279.56
2022-09-24T03:00:47.000Z,279.56
2022-09-24T03:02:53.000Z,279.56
2022-09-24T03:04:20.000Z,279.55
2022-09-24T03:06:26.000Z,279.55
2022-09-24T03:07:52.000Z,279.55
2022-09-24T03:09:58.000Z,279.56
2022-09-24T03:11:25.000Z,279.55
2022-09-24T03:13:31.000Z,279.56
2022-09-24T03:14:57.000Z,279.56
2022-09-24T03:17:03.000Z,279.56
2022-09-24T03:18:30.000Z,279.55
2022-09-24T03:20:36.000Z,279.55
2022-09-24T03:22:03.000Z,279.54
2022-09-24T03:24:09.000Z,279.52
2022-09-24T03:25:35.000Z,279.51
2022-09-24T03:27:42.000Z,279.48
2022-09-24T03:29:08.000Z,279.47
2022-09-24T03:31:14.000Z,279.45
2022-09-24T03:32:41.000Z,279.42
2022-09-24T03:34:47.000Z,279.4
2022-09-24T03:37:38.000Z,279.31
2022-09-24T03:39:05.000Z,279.28
2022-09-24T03:41:11.000Z,279.27
2022-09-24T03:42:37.000Z,279.26
2022-09-24T03:44:44.000Z,279.26
2022-09-24T03:46:10.000Z,279.23
2022-09-24T03:48:17.000Z,279.22
2022-09-24T03:49:43.000Z,279.19
2022-09-24T03:51:49.000Z,279.17
2022-09-24T03:53:16.000Z,279.15
2022-09-24T03:55:22.000Z,279.12
2022-09-24T03:56:48.000Z,279.09
2022-09-24T03:58:54.000Z,279.06
2022-09-24T04:00:21.000Z,279.02
2022-09-24T04:02:27.000Z,278.99
2022-09-24T04:03:54.000Z,278.93
2022-09-24T04:06:00.000Z,278.92
2022-09-24T04:07:26.000Z,278.89
2022-09-24T04:09:33.000Z,278.86
2022-09-24T04:10:59.000Z,278.83
2022-09-24T04:13:05.000Z,278.81
2022-09-24T04:15:56.000Z,278.76
2022-09-24T04:17:23.000Z,278.74
2022-09-24T04:19:29.000Z,278.69
2022-09-24T04:20:56.000Z,278.67
2022-09-24T04:23:02.000Z,278.64
2022-09-24T04:24:28.000Z,278.6
2022-09-24T04:26:35.000Z,278.57
2022-09-24T04:28:01.000Z,278.53
2022-09-24T04:30:07.000Z,278.51
2022-09-24T04:31:34.000Z,278.49
2022-09-24T04:33:40.000Z,278.46
2022-09-24T04:35:06.000Z,278.44
2022-09-24T04:37:13.000Z,278.43
2022-09-24T04:38:40.000Z,278.39
2022-09-24T04:40:46.000Z,278.36
2022-09-24T04:42:13.000Z,278.33
2022-09-24T04:44:19.000Z,278.32
2022-09-24T04:45:45.000Z,278.3
2022-09-24T04:47:51.000Z,278.3
2022-09-24T04:49:18.000Z,278.3
2022-09-24T04:51:24.000Z,278.29
2022-09-24T04:54:15.000Z,278.29
2022-09-24T04:55:42.000Z,278.26
2022-09-24T04:57:48.000Z,278.25
2022-09-24T04:59:14.000Z,278.24
2022-09-24T05:01:20.000Z,278.2
2022-09-24T05:02:47.000Z,278.17
2022-09-24T05:04:53.000Z,278.14
2022-09-24T05:06:20.000Z,278.1
2022-09-24T05:08:26.000Z,278.11
2022-09-24T05:09:52.000Z,278.11
2022-09-24T05:11:58.000Z,278.1
2022-09-24T05:13:25.000Z,278.06
2022-09-24T05:15:31.000Z,278.03
2022-09-24T05:16:57.000Z,278.03
2022-09-24T05:19:04.000Z,278.04
2022-09-24T05:20:30.000Z,278.04
2022-09-24T05:22:36.000Z,278.03
2022-09-24T05:24:03.000Z,278
2022-09-24T05:26:09.000Z,277.97
2022-09-24T05:27:35.000Z,277.95
2022-09-24T05:29:42.000Z,277.92
2022-09-24T05:32:33.000Z,277.92
2022-09-24T05:33:59.000Z,277.95
2022-09-24T05:36:05.000Z,277.95
2022-09-24T05:37:32.000Z,277.97
2022-09-24T05:39:38.000Z,278
2022-09-24T05:41:04.000Z,278.02
2022-09-24T05:43:11.000Z,278.04
2022-09-24T05:44:37.000Z,278.09
2022-09-24T05:46:43.000Z,278.13
2022-09-24T05:48:10.000Z,278.16
2022-09-24T05:50:16.000Z,278.2
2022-09-24T05:51:43.000Z,278.24
2022-09-24T05:53:49.000Z,278.28
2022-09-24T05:55:15.000Z,278.3
2022-09-24T05:57:21.000Z,278.32
2022-09-24T05:58:48.000Z,278.35
2022-09-24T06:00:54.000Z,278.37
2022-09-24T06:02:20.000Z,278.39
2022-09-24T06:04:27.000Z,278.39
2022-09-24T06:05:53.000Z,278.43
2022-09-24T06:07:59.000Z,278.46
2022-09-24T06:10:50.000Z,278.46
2022-09-24T06:12:17.000Z,278.5
2022-09-24T06:14:23.000Z,278.53
2022-09-24T06:15:49.000Z,278.6
2022-09-24T06:17:56.000Z,278.67
2022-09-24T06:19:22.000Z,278.74
2022-09-24T06:21:28.000Z,278.78
2022-09-24T06:22:55.000Z,278.83
2022-09-24T06:25:01.000Z,278.88
2022-09-24T06:26:27.000Z,278.92
2022-09-24T06:28:33.000Z,278.94
2022-09-24T06:30:00.000Z,278.99
2022-09-24T06:32:06.000Z,279.03
2022-09-24T06:33:32.000Z,279.12
2022-09-24T06:35:39.000Z,279.2
2022-09-24T06:37:05.000Z,279.27
2022-09-24T06:39:11.000Z,279.35
2022-09-24T06:40:38.000Z,279.44
2022-09-24T06:42:44.000Z,279.51
2022-09-24T06:44:11.000Z,279.6
2022-09-24T06:46:17.000Z,279.66
2022-09-24T06:49:08.000Z,279.72
2022-09-24T06:50:35.000Z,279.73
2022-09-24T06:52:41.000Z,279.8
2022-09-24T06:54:07.000Z,279.82
2022-09-24T06:56:13.000Z,279.82
2022-09-24T06:57:40.000Z,279.85
2022-09-24T06:59:46.000Z,279.85
2022-09-24T07:01:12.000Z,279.88
2022-09-24T07:03:19.000Z,279.88
2022-09-24T07:04:45.000Z,279.89
2022-09-24T07:06:51.000Z,279.89
2022-09-24T07:08:18.000Z,279.89
2022-09-24T07:10:24.000Z,279.89
2022-09-24T07:11:50.000Z,279.92
2022-09-24T07:13:56.000Z,279.92
2022-09-24T07:15:23.000Z,279.95
2022-09-24T07:17:29.000Z,280.02
2022-09-24T07:19:00.000Z,280.13
2022-09-24T07:21:06.000Z,280.21
2022-09-24T07:22:32.000Z,280.37
2022-09-24T07:24:39.000Z,280.46
2022-09-24T07:27:30.000Z,280.47
2022-09-24T07:28:56.000Z,280.5
2022-09-24T07:31:02.000Z,280.62
2022-09-24T07:32:29.000Z,280.73
2022-09-24T07:34:36.000Z,280.76
2022-09-24T07:36:02.000Z,280.82
2022-09-24T07:38:08.000Z,280.89
2022-09-24T07:39:35.000Z,281
2022-09-24T07:41:41.000Z,281.12
2022-09-24T07:43:08.000Z,281.23
2022-09-24T07:45:14.000Z,281.29
2022-09-24T07:46:41.000Z,281.35
2022-09-24T07:48:47.000Z,281.39
2022-09-24T07:50:14.000Z,281.48
2022-09-24T07:52:20.000Z,281.56
2022-09-24T07:53:46.000Z,281.63
2022-09-24T07:55:52.000Z,281.72
2022-09-24T07:57:19.000Z,281.79
2022-09-24T07:59:25.000Z,281.85
2022-09-24T08:00:52.000Z,281.92
2022-09-24T08:02:58.000Z,282.03
2022-09-24T08:05:49.000Z,282.17
2022-09-24T08:07:15.000Z,282.28
2022-09-24T08:09:21.000Z,282.42
2022-09-24T08:10:48.000Z,282.5
2022-09-24T08:12:54.000Z,282.56
2022-09-24T08:14:20.000Z,282.61
2022-09-24T08:16:27.000Z,282.74
2022-09-24T08:17:53.000Z,282.82
2022-09-24T08:19:59.000Z,282.92
2022-09-24T08:21:26.000Z,283
2022-09-24T08:23:32.000Z,283.09
2022-09-24T08:24:59.000Z,283.17
2022-09-24T08:27:05.000Z,283.26
2022-09-24T08:28:31.000Z,283.32
2022-09-24T08:30:37.000Z,283.4
2022-09-24T08:32:04.000Z,283.47
2022-09-24T08:34:10.000Z,283.54
2022-09-24T08:35:36.000Z,283.61
2022-09-24T08:37:43.000Z,283.68
2022-09-24T08:39:09.000Z,283.77
2022-09-24T08:41:15.000Z,283.79
2022-09-24T08:44:07.000Z,283.9
2022-09-24T08:45:33.000Z,284.01
2022-09-24T08:47:39.000Z,284.12
2022-09-24T08:49:06.000Z,284.23
2022-09-24T08:51:12.000Z,284.24
2022-09-24T08:52:39.000Z,284.31
2022-09-24T08:54:45.000Z,284.33
2022-09-24T08:56:11.000Z,284.45
2022-09-24T08:58:17.000Z,284.55
2022-09-24T08:59:44.000Z,284.64
2022-09-24T09:01:50.000Z,284.74
2022-09-24T09:03:17.000Z,284.77
2022-09-24T09:05:23.000Z,284.84
2022-09-24T09:06:49.000Z,284.94
2022-09-24T09:08:56.000Z,284.99
2022-09-24T09:10:34.000Z,285.05
2022-09-24T09:12:40.000Z,285.13
2022-09-24T09:14:06.000Z,285.21
2022-09-24T09:16:12.000Z,285.27
2022-09-24T09:17:39.000Z,285.39
2022-09-24T09:19:45.000Z,285.49
2022-09-24T09:22:42.000Z,285.6
2022-09-24T09:24:09.000Z,285.68
2022-09-24T09:26:15.000Z,285.77
2022-09-24T09:27:42.000Z,285.86
2022-09-24T09:29:48.000Z,285.93
2022-09-24T09:31:14.000Z,286.04
2022-09-24T09:33:20.000Z,286.15
2022-09-24T09:34:47.000Z,286.27
2022-09-24T09:36:53.000Z,286.38
2022-09-24T09:38:19.000Z,286.48
2022-09-24T09:40:26.000Z,286.58
2022-09-24T09:41:58.000Z,286.62
2022-09-24T09:44:04.000Z,286.7
2022-09-24T09:45:30.000Z,286.84
2022-09-24T09:47:36.000Z,286.9
2022-09-24T09:49:03.000Z,286.93
2022-09-24T09:51:09.000Z,287
2022-09-24T09:52:35.000Z,287.11
2022-09-24T09:54:42.000Z,287.21
2022-09-24T09:56:08.000Z,287.37
2022-09-24T09:58:14.000Z,287.42
2022-09-24T10:01:05.000Z,287.52
2022-09-24T10:02:32.000Z,287.61
2022-09-24T10:04:38.000Z,287.67
2022-09-24T10:06:05.000Z,287.74
2022-09-24T10:08:11.000Z,287.78
2022-09-24T10:09:37.000Z,287.85
2022-09-24T10:11:43.000Z,287.91
2022-09-24T10:13:10.000Z,287.98
2022-09-24T10:15:16.000Z,288.07
2022-09-24T10:16:42.000Z,288.17
2022-09-24T10:18:49.000Z,288.24
2022-09-24T10:20:15.000Z,288.33
2022-09-24T10:22:21.000Z,288.4
2022-09-24T10:23:48.000Z,288.5
2022-09-24T10:25:54.000Z,288.58
2022-09-24T10:27:20.000Z,288.63
2022-09-24T10:29:27.000Z,288.68
2022-09-24T10:30:53.000Z,288.75
2022-09-24T10:32:59.000Z,288.81
2022-09-24T10:34:26.000Z,288.89
2022-09-24T10:36:32.000Z,288.91
2022-09-24T10:39:23.000Z,288.97
2022-09-24T10:40:49.000Z,289.01
2022-09-24T10:42:56.000Z,289.12
2022-09-24T10:44:22.000Z,289.29
2022-09-24T10:46:28.000Z,289.4
2022-09-24T10:47:55.000Z,289.49
2022-09-24T10:50:01.000Z,289.56
2022-09-24T10:51:27.000Z,289.56
2022-09-24T10:53:35.000Z,289.56
2022-09-24T10:55:02.000Z,289.59
2022-09-24T10:57:08.000Z,289.66
2022-09-24T10:58:34.000Z,289.72
2022-09-24T11:00:40.000Z,289.73
2022-09-24T11:02:07.000Z,289.7
2022-09-24T11:04:13.000Z,289.73
2022-09-24T11:05:40.000Z,289.79
2022-09-24T11:07:46.000Z,289.83
2022-09-24T11:09:12.000Z,289.83
2022-09-24T11:11:18.000Z,289.8
2022-09-24T11:12:45.000Z,289.79
2022-09-24T11:14:51.000Z,289.81
2022-09-24T11:17:42.000Z,289.86
2022-09-24T11:19:08.000Z,289.9
2022-09-24T11:21:15.000Z,289.94
2022-09-24T11:22:41.000Z,290.04
2022-09-24T11:24:47.000Z,290.09
2022-09-24T11:26:14.000Z,290.12
2022-09-24T11:28:20.000Z,290.15
2022-09-24T11:29:46.000Z,290.19
2022-09-24T11:31:52.000Z,290.2
2022-09-24T11:33:19.000Z,290.23
2022-09-24T11:35:29.000Z,290.25
2022-09-24T11:36:56.000Z,290.25
2022-09-24T11:39:02.000Z,290.3
2022-09-24T11:40:28.000Z,290.3
2022-09-24T11:42:35.000Z,290.37
2022-09-24T11:44:01.000Z,290.49
2022-09-24T11:46:07.000Z,290.58
2022-09-24T11:47:34.000Z,290.62
2022-09-24T11:49:40.000Z,290.72
2022-09-24T11:51:06.000Z,290.74
2022-09-24T11:53:13.000Z,290.78
2022-09-24T11:56:04.000Z,290.85
2022-09-24T11:57:37.000Z,290.88
2022-09-24T11:59:43.000Z,290.88
2022-09-24T12:01:09.000Z,290.78
2022-09-24T12:03:15.000Z,290.75
2022-09-24T12:04:42.000Z,290.78
2022-09-24T12:06:48.000Z,290.82
2022-09-24T12:08:15.000Z,290.79
2022-09-24T12:10:21.000Z,290.81
2022-09-24T12:11:47.000Z,290.91
2022-09-24T12:13:53.000Z,290.99
2022-09-24T12:15:20.000Z,291.04
2022-09-24T12:17:26.000Z,291.1
2022-09-24T12:18:52.000Z,291.16
2022-09-24T12:20:59.000Z,291.2
2022-09-24T12:22:25.000Z,291.21
2022-09-24T12:24:31.000Z,291.18
2022-09-24T12:25:58.000Z,291.2
2022-09-24T12:28:04.000Z,291.21
2022-09-24T12:29:30.000Z,291.23
2022-09-24T12:31:37.000Z,291.25
2022-09-24T12:34:28.000Z,291.27
2022-09-24T12:35:54.000Z,291.3
2022-09-24T12:38:01.000Z,291.31
2022-09-24T12:39:27.000Z,291.32
2022-09-24T12:41:33.000Z,291.32
2022-09-24T12:43:00.000Z,291.32
2022-09-24T12:45:06.000Z,291.36
2022-09-24T12:46:32.000Z,291.39
2022-09-24T12:48:38.000Z,291.48
2022-09-24T12:50:05.000Z,291.59
2022-09-24T12:52:11.000Z,291.64
2022-09-24T12:53:38.000Z,291.66
2022-09-24T12:55:44.000Z,291.62
2022-09-24T12:57:10.000Z,291.55
2022-09-24T12:59:17.000Z,291.49
2022-09-24T13:00:43.000Z,291.43
2022-09-24T13:02:49.000Z,291.35
2022-09-24T13:04:16.000Z,291.27
2022-09-24T13:06:22.000Z,291.24
2022-09-24T13:07:49.000Z,291.24
2022-09-24T13:09:55.000Z,291.25
2022-09-24T13:12:46.000Z,291.35
2022-09-24T13:14:13.000Z,291.35
2022-09-24T13:16:19.000Z,291.35
2022-09-24T13:17:46.000Z,291.3
2022-09-24T13:19:52.000Z,291.31
2022-09-24T13:21:19.000Z,291.42
2022-09-24T13:23:25.000Z,291.62
2022-09-24T13:24:51.000Z,291.74
2022-09-24T13:26:57.000Z,291.79
2022-09-24T13:28:24.000Z,291.78
2022-09-24T13:30:30.000Z,291.69
2022-09-24T13:31:56.000Z,291.59
2022-09-24T13:34:02.000Z,291.55
2022-09-24T13:35:29.000Z,291.5
2022-09-24T13:37:35.000Z,291.55
2022-09-24T13:39:02.000Z,291.71
2022-09-24T13:41:08.000Z,291.92
2022-09-24T13:42:34.000Z,292.05
2022-09-24T13:44:41.000Z,292.14
2022-09-24T13:46:07.000Z,292.25
2022-09-24T13:48:13.000Z,292.32
2022-09-24T13:51:05.000Z,292.19
2022-09-24T13:52:31.000Z,292.05
2022-09-24T13:54:37.000Z,291.96
2022-09-24T13:56:04.000Z,291.79
2022-09-24T13:58:10.000Z,291.71
2022-09-24T13:59:36.000Z,291.63
2022-09-24T14:01:42.000Z,291.57
2022-09-24T14:03:09.000Z,291.53
2022-09-24T14:05:15.000Z,291.5
2022-09-24T14:06:42.000Z,291.49
2022-09-24T14:08:48.000Z,291.45
2022-09-24T14:10:14.000Z,291.43
2022-09-24T14:12:21.000Z,291.43
2022-09-24T14:13:47.000Z,291.42
2022-09-24T14:15:53.000Z,291.52
2022-09-24T14:17:20.000Z,291.71
2022-09-24T14:19:26.000Z,291.9
2022-09-24T14:20:53.000Z,292.03
2022-09-24T14:22:59.000Z,292.09
2022-09-24T14:24:25.000Z,292.11
2022-09-24T14:26:31.000Z,292.12
2022-09-24T14:29:22.000Z,292.12
2022-09-24T14:30:49.000Z,292.11
2022-09-24T14:32:55.000Z,292.12
2022-09-24T14:34:22.000Z,292.14
2022-09-24T14:36:28.000Z,292.09
2022-09-24T14:37:54.000Z,292.22
2022-09-24T14:40:00.000Z,292.29
2022-09-24T14:41:29.000Z,292.3
2022-09-24T14:43:35.000Z,292.36
2022-09-24T14:45:01.000Z,292.5
2022-09-24T14:47:08.000Z,292.41
2022-09-24T14:48:34.000Z,292.53
2022-09-24T14:50:40.000Z,292.51
2022-09-24T14:52:07.000Z,292.48
2022-09-24T14:54:13.000Z,292.48
2022-09-24T14:55:39.000Z,292.5
2022-09-24T14:57:45.000Z,292.44
2022-09-24T14:59:15.000Z,292.53
2022-09-24T15:01:22.000Z,292.46
2022-09-24T15:02:48.000Z,292.28
2022-09-24T15:04:54.000Z,292.18
2022-09-24T15:07:45.000Z,291.99
2022-09-24T15:09:12.000Z,291.95
2022-09-24T15:11:18.000Z,291.88
2022-09-24T15:12:45.000Z,291.82
2022-09-24T15:14:51.000Z,291.72
2022-09-24T15:16:17.000Z,291.64
2022-09-24T15:18:24.000Z,291.56
2022-09-24T15:19:50.000Z,291.41
2022-09-24T15:21:56.000Z,291.31
2022-09-24T15:23:23.000Z,291.21
2022-09-24T15:25:29.000Z,291.11
2022-09-24T15:26:55.000Z,291.04
2022-09-24T15:29:02.000Z,290.99
2022-09-24T15:30:28.000Z,290.96
2022-09-24T15:32:34.000Z,290.89
2022-09-24T15:34:01.000Z,290.86
2022-09-24T15:36:07.000Z,290.84
2022-09-24T15:37:33.000Z,290.81
2022-09-24T15:39:39.000Z,290.79
2022-09-24T15:41:06.000Z,290.77
2022-09-24T15:43:12.000Z,290.74
2022-09-24T15:46:03.000Z,290.7
2022-09-24T15:47:30.000Z,290.66
2022-09-24T15:49:36.000Z,290.63
2022-09-24T15:51:02.000Z,290.59
2022-09-24T15:53:15.000Z,290.56
2022-09-24T15:54:41.000Z,290.53
2022-09-24T15:56:47.000Z,290.51
2022-09-24T15:58:14.000Z,290.46
2022-09-24T16:00:25.000Z,290.46
2022-09-24T16:01:51.000Z,290.42
2022-09-24T16:03:57.000Z,290.39
2022-09-24T16:05:24.000Z,290.34
2022-09-24T16:07:30.000Z,290.3
2022-09-24T16:08:57.000Z,290.26
2022-09-24T16:11:03.000Z,290.19
2022-09-24T16:12:35.000Z,290.15
2022-09-24T16:14:41.000Z,290.12
2022-09-24T16:16:07.000Z,290.06
2022-09-24T16:18:14.000Z,290.04
2022-09-24T16:19:40.000Z,289.97
2022-09-24T16:21:46.000Z,289.95
2022-09-24T16:24:37.000Z,289.88
2022-09-24T16:26:04.000Z,289.84
2022-09-24T16:28:10.000Z,289.79
2022-09-24T16:29:37.000Z,289.73
2022-09-24T16:31:43.000Z,289.68
2022-09-24T16:33:09.000Z,289.62
2022-09-24T16:35:15.000Z,289.56
2022-09-24T16:36:42.000Z,289.54
2022-09-24T16:38:48.000Z,289.51
2022-09-24T16:40:14.000Z,289.42
2022-09-24T16:42:20.000Z,289.35
2022-09-24T16:43:47.000Z,289.3
2022-09-24T16:45:53.000Z,289.22
2022-09-24T16:47:20.000Z,289.15
2022-09-24T16:49:26.000Z,289.11
2022-09-24T16:50:52.000Z,289.05
2022-09-24T16:52:58.000Z,289.03
2022-09-24T16:54:25.000Z,288.94
2022-09-24T16:56:31.000Z,288.83
2022-09-24T16:57:58.000Z,288.78
2022-09-24T17:00:04.000Z,288.68
2022-09-24T17:02:55.000Z,288.57
2022-09-24T17:04:22.000Z,288.51
2022-09-24T17:06:28.000Z,288.49
2022-09-24T17:07:55.000Z,288.42
2022-09-24T17:10:01.000Z,288.33
2022-09-24T17:11:27.000Z,288.23
2022-09-24T17:13:33.000Z,288.16
2022-09-24T17:15:00.000Z,288.09
2022-09-24T17:17:06.000Z,288.06
2022-09-24T17:18:33.000Z,288.02
2022-09-24T17:20:39.000Z,287.96
2022-09-24T17:22:05.000Z,287.88
2022-09-24T17:24:11.000Z,287.84
2022-09-24T17:25:38.000Z,287.77
2022-09-24T17:27:44.000Z,287.71
2022-09-24T17:29:10.000Z,287.64
2022-09-24T17:31:16.000Z,287.57
2022-09-24T17:32:43.000Z,287.56
2022-09-24T17:34:49.000Z,287.56
2022-09-24T17:36:16.000Z,287.53
2022-09-24T17:38:22.000Z,287.5
2022-09-24T17:41:13.000Z,287.46
2022-09-24T17:42:40.000Z,287.37
2022-09-24T17:44:46.000Z,287.37
2022-09-24T17:46:12.000Z,287.34
2022-09-24T17:48:20.000Z,287.33
2022-09-24T17:49:47.000Z,287.3
2022-09-24T17:51:53.000Z,287.26
2022-09-24T17:53:19.000Z,287.21
2022-09-24T17:55:26.000Z,287.18
2022-09-24T17:56:52.000Z,287.09
2022-09-24T17:58:58.000Z,287.08
2022-09-24T18:00:25.000Z,287.04
2022-09-24T18:02:31.000Z,287
2022-09-24T18:03:57.000Z,286.93
2022-09-24T18:06:03.000Z,286.9
2022-09-24T18:07:30.000Z,286.86
2022-09-24T18:09:36.000Z,286.88
2022-09-24T18:11:02.000Z,286.87
2022-09-24T18:13:09.000Z,286.86
2022-09-24T18:14:35.000Z,286.82
2022-09-24T18:16:41.000Z,286.8
2022-09-24T18:19:32.000Z,286.8
2022-09-24T18:20:59.000Z,286.8
2022-09-24T18:23:05.000Z,286.79
2022-09-24T18:24:31.000Z,286.73
2022-09-24T18:26:38.000Z,286.7
2022-09-24T18:28:04.000Z,286.68
2022-09-24T18:30:10.000Z,286.66
2022-09-24T18:31:37.000Z,286.62
2022-09-24T18:33:43.000Z,286.62
2022-09-24T18:35:09.000Z,286.62
2022-09-24T18:37:15.000Z,286.61
2022-09-24T18:38:42.000Z,286.56
2022-09-24T18:40:48.000Z,286.54
2022-09-24T18:42:14.000Z,286.5
2022-09-24T18:44:21.000Z,286.45
2022-09-24T18:45:47.000Z,286.43
2022-09-24T18:47:53.000Z,286.41
2022-09-24T18:49:20.000Z,286.38
2022-09-24T18:51:26.000Z,286.4
2022-09-24T18:52:52.000Z,286.4
2022-09-24T18:54:58.000Z,286.34
2022-09-24T18:57:50.000Z,286.29
2022-09-24T18:59:16.000Z,286.25
2022-09-24T19:01:24.000Z,286.22
2022-09-24T19:02:50.000Z,286.16
2022-09-24T19:04:57.000Z,286.11
2022-09-24T19:06:23.000Z,286.1
2022-09-24T19:08:29.000Z,286.05
2022-09-24T19:09:56.000Z,286
2022-09-24T19:12:02.000Z,285.97
2022-09-24T19:13:28.000Z,285.97
2022-09-24T19:15:35.000Z,285.96
2022-09-24T19:17:01.000Z,285.92
2022-09-24T19:19:07.000Z,285.91
2022-09-24T19:20:34.000Z,285.89
2022-09-24T19:22:40.000Z,285.86
2022-09-24T19:24:06.000Z,285.86
2022-09-24T19:26:13.000Z,285.85
2022-09-24T19:27:39.000Z,285.84
2022-09-24T19:29:45.000Z,285.81
2022-09-24T19:31:12.000Z,285.79
2022-09-24T19:33:18.000Z,285.79
2022-09-24T19:36:10.000Z,285.77
2022-09-24T19:37:36.000Z,285.77
2022-09-24T19:39:42.000Z,285.77
2022-09-24T19:41:09.000Z,285.75
2022-09-24T19:43:15.000Z,285.72
2022-09-24T19:44:41.000Z,285.72
2022-09-24T19:46:47.000Z,285.71
2022-09-24T19:48:14.000Z,285.71
2022-09-24T19:50:20.000Z,285.71
2022-09-24T19:51:46.000Z,285.7
2022-09-24T19:53:53.000Z,285.67
2022-09-24T19:55:19.000Z,285.65
2022-09-24T19:57:30.000Z,285.65
2022-09-24T19:58:57.000Z,285.61
2022-09-24T20:01:03.000Z,285.59
2022-09-24T20:02:30.000Z,285.54
2022-09-24T20:04:36.000Z,285.53
2022-09-24T20:06:02.000Z,285.53
2022-09-24T20:08:08.000Z,285.53
2022-09-24T20:09:35.000Z,285.53
2022-09-24T20:11:41.000Z,285.52
2022-09-24T20:14:32.000Z,285.5
2022-09-24T20:16:00.000Z,285.5
2022-09-24T20:18:06.000Z,285.49
2022-09-24T20:19:33.000Z,285.47
2022-09-24T20:21:39.000Z,285.47
2022-09-24T20:23:05.000Z,285.46
2022-09-24T20:25:11.000Z,285.46
2022-09-24T20:26:38.000Z,285.45
2022-09-24T20:28:44.000Z,285.42
2022-09-24T20:30:11.000Z,285.43
2022-09-24T20:32:17.000Z,285.4
2022-09-24T20:33:43.000Z,285.38
2022-09-24T20:35:49.000Z,285.35
2022-09-24T20:37:16.000Z,285.31
2022-09-24T20:39:22.000Z,285.29
2022-09-24T20:40:48.000Z,285.28
2022-09-24T20:42:55.000Z,285.31
2022-09-24T20:44:21.000Z,285.29
2022-09-24T20:46:27.000Z,285.29
2022-09-24T20:47:54.000Z,285.29
2022-09-24T20:50:00.000Z,285.28
2022-09-24T20:52:51.000Z,285.27
2022-09-24T20:54:18.000Z,285.24
2022-09-24T20:56:24.000Z,285.24
2022-09-24T20:57:50.000Z,285.22
2022-09-24T20:59:57.000Z,285.22
2022-09-24T21:01:23.000Z,285.2
2022-09-24T21:05:05.000Z,285.15
2022-09-24T21:07:12.000Z,285.17
2022-09-24T21:08:38.000Z,285.17
2022-09-24T21:10:44.000Z,285.18
2022-09-24T21:12:11.000Z,285.17
2022-09-24T21:14:17.000Z,285.09
2022-09-24T21:15:44.000Z,285.05
2022-09-24T21:17:50.000Z,285.03
2022-09-24T21:19:45.000Z,285.03
2022-09-24T21:23:23.000Z,285
2022-09-24T21:25:17.000Z,285.02
2022-09-24T21:27:18.000Z,285.02
2022-09-24T21:29:24.000Z,285.02
2022-09-24T21:30:51.000Z,285.02
2022-09-24T21:32:57.000Z,285.03
2022-09-24T21:34:24.000Z,285.02
2022-09-24T21:36:30.000Z,285.03
2022-09-24T21:37:56.000Z,285.03
2022-09-24T21:40:02.000Z,285.02
2022-09-24T21:41:29.000Z,285
2022-09-24T21:43:35.000Z,284.99
2022-09-24T21:45:02.000Z,284.98
2022-09-24T21:47:08.000Z,284.96
2022-09-24T21:48:34.000Z,284.98
2022-09-24T21:50:40.000Z,284.96
2022-09-24T21:52:07.000Z,284.96
2022-09-24T21:54:13.000Z,284.96
2022-09-24T21:55:39.000Z,284.96
2022-09-24T21:57:46.000Z,284.95
2022-09-24T21:59:12.000Z,284.95
2022-09-24T22:01:18.000Z,284.95
2022-09-24T22:04:09.000Z,284.95
2022-09-24T22:05:36.000Z,284.91
2022-09-24T22:07:42.000Z,284.88
2022-09-24T22:09:09.000Z,284.85
2022-09-24T22:11:15.000Z,284.85
2022-09-24T22:12:41.000Z,284.85
2022-09-24T22:14:48.000Z,284.84
2022-09-24T22:16:14.000Z,284.85
2022-09-24T22:18:20.000Z,284.85
2022-09-24T22:19:47.000Z,284.85
2022-09-24T22:21:53.000Z,284.85
2022-09-24T22:23:19.000Z,284.82
2022-09-24T22:25:25.000Z,284.8
2022-09-24T22:26:52.000Z,284.78
2022-09-24T22:28:58.000Z,284.77
2022-09-24T22:30:24.000Z,284.77
2022-09-24T22:32:31.000Z,284.77
2022-09-24T22:33:57.000Z,284.75
2022-09-24T22:36:03.000Z,284.75
2022-09-24T22:37:30.000Z,284.75
2022-09-24T22:39:36.000Z,284.75
2022-09-24T22:42:27.000Z,284.77
2022-09-24T22:43:54.000Z,284.77
2022-09-24T22:46:00.000Z,284.77
2022-09-24T22:47:26.000Z,284.8
2022-09-24T22:49:33.000Z,284.81
2022-09-24T22:50:59.000Z,284.82
2022-09-24T22:53:05.000Z,284.84
2022-09-24T22:54:32.000Z,284.84
2022-09-24T22:56:38.000Z,284.81